Time;durP1;ratioP1;P1;durP2;ratioP2;P2;SDS_P1;SDS_P2;PMS_P1;PMS_P2;Temp;Humidity;BMP_temperature;BMP_pressure;BME280_temperature;BME280_humidity;BME280_pressure;Samples;Min_cycle;Max_cycle;Signal;HPM_P1;HPM_P2
2021/06/09 00:01:03;;;;;;;8.07;4.80;;;22.20;66.30;;;;;;5055658;28;20126;-74
2021/06/09 00:03:29;;;;;;;5.30;4.65;;;22.10;66.20;;;;;;5055514;28;20092;-73
2021/06/09 00:05:55;;;;;;;5.53;4.63;;;22.10;66.20;;;;;;5055544;28;20108;-73
2021/06/09 00:08:20;;;;;;;5.63;4.80;;;22.10;66.00;;;;;;5055241;28;20094;-74
2021/06/09 00:10:50;;;;;;;6.68;5.43;;;22.10;65.80;;;;;;5054894;28;20028;-74
2021/06/09 00:13:16;;;;;;;7.25;5.10;;;22.10;65.90;;;;;;5055280;28;20453;-73
2021/06/09 00:15:43;;;;;;;10.13;4.75;;;22.10;65.80;;;;;;5055037;28;20040;-73
2021/06/09 00:18:09;;;;;;;8.82;4.88;;;22.10;65.50;;;;;;5055115;28;20048;-74
2021/06/09 00:20:35;;;;;;;5.78;5.13;;;22.00;65.10;;;;;;5055006;28;20064;-75
2021/06/09 00:23:00;;;;;;;5.35;4.75;;;22.00;65.40;;;;;;5054835;28;20025;-73
2021/06/09 00:25:26;;;;;;;6.63;4.72;;;22.00;65.20;;;;;;5054987;28;20029;-76
2021/06/09 00:27:54;;;;;;;6.00;4.88;;;22.00;65.30;;;;;;5054943;28;20025;-74
2021/06/09 00:30:25;;;;;;;6.13;4.60;;;22.00;65.40;;;;;;5054547;28;20029;-73
2021/06/09 00:32:51;;;;;;;5.18;4.43;;;22.00;65.30;;;;;;5054802;28;20106;-73
2021/06/09 00:35:16;;;;;;;7.57;4.65;;;22.00;65.00;;;;;;5054978;28;20025;-74
2021/06/09 00:37:42;;;;;;;5.63;4.45;;;21.90;64.80;;;;;;5055037;28;20120;-75
2021/06/09 00:40:09;;;;;;;7.15;4.45;;;21.90;65.00;;;;;;5054888;28;20027;-75
2021/06/09 00:42:36;;;;;;;8.23;4.78;;;21.90;65.30;;;;;;5054741;28;20385;-74
2021/06/09 00:45:06;;;;;;;7.38;4.63;;;21.90;65.50;;;;;;5054467;28;20032;-74
2021/06/09 00:47:32;;;;;;;5.80;4.47;;;21.90;65.70;;;;;;5054357;28;20025;-73
2021/06/09 00:49:57;;;;;;;5.72;5.15;;;22.00;65.70;;;;;;5054369;28;20029;-74
2021/06/09 00:52:28;;;;;;;4.97;4.53;;;22.00;65.80;;;;;;5054519;28;20047;-73
2021/06/09 00:54:54;;;;;;;6.85;5.00;;;22.00;65.70;;;;;;5054377;28;20017;-73
2021/06/09 00:57:22;;;;;;;14.77;5.32;;;22.00;65.60;;;;;;5054173;28;20069;-73
2021/06/09 00:59:48;;;;;;;8.20;5.47;;;21.90;66.00;;;;;;5050797;28;20021;-74
2021/06/09 01:02:14;;;;;;;9.00;5.88;;;21.90;66.80;;;;;;5051305;28;20444;-73
2021/06/09 01:04:40;;;;;;;7.30;5.28;;;21.80;67.10;;;;;;5051917;28;20025;-73
2021/06/09 01:07:08;;;;;;;6.38;5.28;;;21.80;67.40;;;;;;5053987;28;20473;-73
2021/06/09 01:09:35;;;;;;;8.32;5.53;;;21.80;67.90;;;;;;5054039;28;20090;-75
2021/06/09 01:12:01;;;;;;;9.00;5.63;;;21.80;67.90;;;;;;5054016;28;20031;-73
2021/06/09 01:14:26;;;;;;;9.82;5.63;;;21.70;68.20;;;;;;5053672;28;20104;-73
2021/06/09 01:16:54;;;;;;;13.82;6.80;;;21.70;68.70;;;;;;5053972;28;20115;-74
2021/06/09 01:19:21;;;;;;;8.13;6.10;;;21.60;69.00;;;;;;5054055;28;20104;-73
2021/06/09 01:21:48;;;;;;;10.77;6.47;;;21.60;69.20;;;;;;5053766;28;20032;-73
2021/06/09 01:24:14;;;;;;;10.85;6.07;;;21.50;69.20;;;;;;5052426;28;20017;-75
2021/06/09 01:26:41;;;;;;;11.15;6.45;;;21.40;69.40;;;;;;5053680;28;20151;-73
2021/06/09 01:29:09;;;;;;;10.25;6.68;;;21.40;69.60;;;;;;5053701;28;20029;-74
2021/06/09 01:31:35;;;;;;;8.25;6.25;;;21.30;69.80;;;;;;5053455;28;20074;-73
2021/06/09 01:34:05;;;;;;;12.68;6.55;;;21.30;70.00;;;;;;5053746;28;20104;-72
2021/06/09 01:36:36;;;;;;;10.68;6.93;;;21.20;70.10;;;;;;5053194;28;20036;-73
2021/06/09 01:39:17;;;;;;;10.75;6.25;;;21.20;70.20;;;;;;5053294;28;20033;-73
2021/06/09 01:41:48;;;;;;;12.05;6.45;;;21.20;70.00;;;;;;5053489;28;20025;-73
2021/06/09 01:44:14;;;;;;;9.32;6.03;;;21.10;70.30;;;;;;5053244;28;20104;-73
2021/06/09 01:46:41;;;;;;;12.40;6.60;;;21.10;70.20;;;;;;5053502;28;20044;-73
2021/06/09 01:49:11;;;;;;;9.57;6.03;;;21.10;70.40;;;;;;5053607;28;20028;-73
2021/06/09 01:51:37;;;;;;;8.18;6.13;;;21.00;70.60;;;;;;5053231;28;20028;-73
2021/06/09 01:54:07;;;;;;;8.77;6.47;;;21.00;70.70;;;;;;5053186;28;20389;-73
2021/06/09 01:56:35;;;;;;;12.98;6.15;;;21.00;70.80;;;;;;5053053;28;20544;-75
2021/06/09 01:59:21;;;;;;;13.27;6.45;;;20.90;70.90;;;;;;5052822;28;20029;-75
2021/06/09 02:01:49;;;;;;;11.32;6.03;;;20.90;70.90;;;;;;5052985;28;20052;-74
2021/06/09 02:04:16;;;;;;;10.77;6.63;;;20.90;71.10;;;;;;5052983;28;20029;-73
2021/06/09 02:06:43;;;;;;;12.05;7.15;;;20.90;71.20;;;;;;5053597;28;20388;-73
2021/06/09 02:09:10;;;;;;;14.45;7.55;;;20.90;71.40;;;;;;5053214;28;20075;-73
2021/06/09 02:11:40;;;;;;;10.20;6.95;;;20.80;71.40;;;;;;5053144;28;20048;-75
2021/06/09 02:14:07;;;;;;;11.35;7.47;;;20.80;71.40;;;;;;5053056;28;20025;-74
2021/06/09 02:16:37;;;;;;;13.45;6.72;;;20.90;71.60;;;;;;5052028;28;20035;-74
2021/06/09 02:19:05;;;;;;;8.70;7.28;;;20.80;71.50;;;;;;5051817;28;20025;-74
2021/06/09 02:21:33;;;;;;;10.35;6.88;;;20.80;71.40;;;;;;5052821;28;20108;-73
2021/06/09 02:23:59;;;;;;;13.40;6.75;;;20.80;71.40;;;;;;5053075;28;20389;-74
2021/06/09 02:26:26;;;;;;;7.65;6.35;;;20.80;71.40;;;;;;5052839;28;20104;-73
2021/06/09 02:28:52;;;;;;;7.95;6.40;;;20.70;71.20;;;;;;5052612;28;20504;-73
2021/06/09 02:31:19;;;;;;;8.63;7.32;;;20.60;71.10;;;;;;5052965;28;20048;-73
2021/06/09 02:33:44;;;;;;;11.32;6.88;;;20.60;71.40;;;;;;5051293;28;20132;-74
2021/06/09 02:36:11;;;;;;;14.32;6.80;;;20.60;71.40;;;;;;5052751;28;20112;-75
2021/06/09 02:38:37;;;;;;;14.48;7.43;;;20.60;71.30;;;;;;5052872;28;20064;-73
2021/06/09 02:41:03;;;;;;;14.13;7.07;;;20.50;71.30;;;;;;5052773;28;20028;-74
2021/06/09 02:43:32;;;;;;;11.43;6.57;;;20.50;71.50;;;;;;5051399;28;20025;-73
2021/06/09 02:46:28;;;;;;;11.10;6.22;;;20.50;71.60;;;;;;5052780;28;20028;-73
2021/06/09 02:49:01;;;;;;;9.85;6.78;;;20.50;71.40;;;;;;5052728;28;20509;-73
2021/06/09 02:51:39;;;;;;;7.95;6.28;;;20.50;71.40;;;;;;5052651;28;20052;-72
2021/06/09 02:54:14;;;;;;;14.95;6.35;;;20.50;71.60;;;;;;5052450;28;20033;-73
2021/06/09 02:57:06;;;;;;;14.70;7.40;;;20.50;71.70;;;;;;5052607;28;20033;-73
2021/06/09 03:00:10;;;;;;;9.07;6.68;;;20.40;71.30;;;;;;5052372;28;20024;-73
2021/06/09 03:02:52;;;;;;;10.77;6.78;;;20.40;71.80;;;;;;5052573;28;20109;-73
2021/06/09 03:05:33;;;;;;;9.05;7.07;;;20.30;71.80;;;;;;5052795;28;20055;-74
2021/06/09 03:08:25;;;;;;;7.07;6.37;;;20.30;71.80;;;;;;5052798;28;20024;-73
2021/06/09 03:11:23;;;;;;;12.15;6.13;;;20.30;71.70;;;;;;5052688;28;20033;-73
2021/06/09 03:14:03;;;;;;;9.27;6.28;;;20.20;71.80;;;;;;5051738;28;20481;-73
2021/06/09 03:16:53;;;;;;;9.60;6.25;;;20.20;72.20;;;;;;5051927;28;20504;-72
2021/06/09 03:19:31;;;;;;;6.93;6.00;;;20.20;72.10;;;;;;5052129;28;20067;-74
2021/06/09 03:22:12;;;;;;;13.00;6.15;;;20.10;72.20;;;;;;5052411;28;20025;-73
2021/06/09 03:24:45;;;;;;;6.75;6.07;;;20.10;71.50;;;;;;5052448;28;20024;-74
2021/06/09 03:27:28;;;;;;;9.32;6.10;;;20.00;71.30;;;;;;5052188;28;20037;-73
2021/06/09 03:30:12;;;;;;;12.25;6.35;;;20.00;72.00;;;;;;5055997;28;20025;-72
2021/06/09 03:33:00;;;;;;;9.70;6.13;;;20.00;72.00;;;;;;5055949;28;20053;-73
2021/06/09 03:35:35;;;;;;;11.02;7.00;;;20.00;72.00;;;;;;5055611;28;20078;-74
2021/06/09 03:38:05;;;;;;;8.25;6.22;;;20.00;71.80;;;;;;5055813;28;20048;-74
2021/06/09 03:40:35;;;;;;;12.48;6.50;;;20.00;71.90;;;;;;5055664;28;20053;-73
2021/06/09 03:43:05;;;;;;;9.35;6.47;;;20.00;72.10;;;;;;5055722;28;20450;-73
2021/06/09 03:45:34;;;;;;;12.10;6.70;;;19.90;72.00;;;;;;5055737;28;20051;-73
2021/06/09 03:48:01;;;;;;;9.80;6.43;;;19.80;72.20;;;;;;5055619;28;20029;-73
2021/06/09 03:50:28;;;;;;;11.07;6.68;;;19.80;72.90;;;;;;5055854;28;20036;-73
2021/06/09 03:53:02;;;;;;;14.02;7.22;;;19.90;72.50;;;;;;5055659;28;20104;-74
2021/06/09 03:55:32;;;;;;;10.60;6.70;;;19.80;72.10;;;;;;5055701;28;20495;-73
2021/06/09 03:57:58;;;;;;;14.30;6.47;;;19.80;72.40;;;;;;5055572;28;20044;-73
2021/06/09 04:00:26;;;;;;;9.52;6.38;;;19.80;72.80;;;;;;5055297;28;20029;-74
2021/06/09 04:02:53;;;;;;;9.20;6.82;;;19.80;72.70;;;;;;5055426;28;20021;-72
2021/06/09 04:05:23;;;;;;;10.93;5.75;;;19.80;72.20;;;;;;5055551;28;20112;-73
2021/06/09 04:07:50;;;;;;;9.90;6.10;;;19.80;72.20;;;;;;5055312;28;20021;-73
2021/06/09 04:10:18;;;;;;;15.13;6.47;;;19.80;72.10;;;;;;5054219;28;20029;-73
2021/06/09 04:12:45;;;;;;;13.25;6.05;;;19.80;72.60;;;;;;5053964;28;20017;-74
2021/06/09 04:15:12;;;;;;;11.88;6.43;;;19.80;72.50;;;;;;5054616;28;20042;-73
2021/06/09 04:17:39;;;;;;;12.70;6.03;;;19.80;72.50;;;;;;5053986;28;20040;-73
2021/06/09 04:20:07;;;;;;;10.55;6.00;;;19.80;72.90;;;;;;5053349;28;20390;-73
2021/06/09 04:22:34;;;;;;;8.60;6.45;;;19.80;72.90;;;;;;5054403;28;20033;-73
2021/06/09 04:25:01;;;;;;;14.55;6.65;;;19.80;72.60;;;;;;5053633;28;20191;-74
2021/06/09 04:27:34;;;;;;;13.40;6.10;;;19.90;72.40;;;;;;5053981;28;20025;-73
2021/06/09 04:30:01;;;;;;;10.68;6.32;;;19.80;72.30;;;;;;5053123;28;20021;-73
2021/06/09 04:32:27;;;;;;;10.13;6.43;;;19.80;72.00;;;;;;5053386;28;20047;-73
2021/06/09 04:34:58;;;;;;;10.68;5.90;;;19.80;72.10;;;;;;5052795;28;20033;-73
2021/06/09 04:37:25;;;;;;;11.52;5.78;;;19.90;72.40;;;;;;5053405;28;20033;-73
2021/06/09 04:39:52;;;;;;;8.10;6.32;;;19.80;72.40;;;;;;5052522;28;20100;-73
2021/06/09 04:42:20;;;;;;;9.93;5.78;;;19.90;72.30;;;;;;5052706;28;20497;-73
2021/06/09 04:44:46;;;;;;;15.63;5.88;;;19.90;72.10;;;;;;5053557;28;20550;-73
2021/06/09 04:47:13;;;;;;;12.23;5.70;;;19.90;71.80;;;;;;5054391;28;20029;-73
2021/06/09 04:49:41;;;;;;;9.40;5.93;;;20.00;72.00;;;;;;5053419;28;20104;-74
2021/06/09 04:52:08;;;;;;;7.47;5.45;;;20.00;71.80;;;;;;5054140;28;20029;-73
2021/06/09 04:54:35;;;;;;;6.05;5.25;;;20.00;71.80;;;;;;5052507;28;20051;-73
2021/06/09 04:57:03;;;;;;;8.32;6.35;;;20.10;71.60;;;;;;5053548;28;20460;-73
2021/06/09 04:59:28;;;;;;;6.63;5.35;;;20.10;71.80;;;;;;5051336;28;20021;-71
2021/06/09 05:01:54;;;;;;;6.22;5.55;;;20.10;71.70;;;;;;5053554;28;20037;-72
2021/06/09 05:04:20;;;;;;;6.65;5.15;;;20.10;72.00;;;;;;5053256;28;20025;-71
2021/06/09 05:06:45;;;;;;;7.63;4.95;;;20.20;72.00;;;;;;5053849;28;20029;-70
2021/06/09 05:09:11;;;;;;;6.05;4.65;;;20.30;72.10;;;;;;5052048;28;20025;-70
2021/06/09 05:11:49;;;;;;;7.63;5.28;;;20.30;72.10;;;;;;5053762;28;20052;-70
2021/06/09 05:14:19;;;;;;;7.20;4.13;;;20.40;71.80;;;;;;5053608;28;20063;-70
2021/06/09 05:16:50;;;;;;;5.93;4.57;;;20.50;71.70;;;;;;5052029;28;20052;-70
2021/06/09 05:19:22;;;;;;;8.13;5.05;;;20.50;71.90;;;;;;5051838;28;20024;-70
2021/06/09 05:21:52;;;;;;;8.52;4.90;;;20.50;70.60;;;;;;5051848;28;20170;-70
2021/06/09 05:24:20;;;;;;;6.85;4.55;;;20.60;70.10;;;;;;5053577;28;20021;-71
2021/06/09 05:26:50;;;;;;;6.55;4.57;;;20.70;70.00;;;;;;5053426;28;20525;-71
2021/06/09 05:29:17;;;;;;;12.60;4.35;;;20.70;69.80;;;;;;5053764;28;20470;-70
2021/06/09 05:31:46;;;;;;;10.77;5.20;;;20.80;69.70;;;;;;5053662;28;20029;-71
2021/06/09 05:34:12;;;;;;;18.48;4.93;;;20.80;69.00;;;;;;5053708;28;20086;-70
2021/06/09 05:36:38;;;;;;;9.65;4.88;;;20.90;68.70;;;;;;5053241;28;20060;-74
2021/06/09 05:39:05;;;;;;;9.52;5.85;;;21.00;68.90;;;;;;5053005;28;20029;-70
2021/06/09 05:41:31;;;;;;;8.45;6.20;;;21.00;69.80;;;;;;5053287;28;20101;-71
2021/06/09 05:43:57;;;;;;;19.75;7.00;;;21.10;71.30;;;;;;5053454;28;20359;-70
2021/06/09 05:46:27;;;;;;;19.08;7.13;;;21.10;72.50;;;;;;5053667;28;20044;-69
2021/06/09 05:48:53;;;;;;;20.42;7.05;;;21.10;72.50;;;;;;5053397;28;20469;-77
2021/06/09 05:51:18;;;;;;;11.85;6.65;;;21.10;73.00;;;;;;5052856;28;20048;-69
2021/06/09 05:53:44;;;;;;;16.10;7.22;;;21.10;73.20;;;;;;5053216;28;20025;-70
2021/06/09 05:56:10;;;;;;;12.50;6.75;;;21.10;73.50;;;;;;5053378;28;20025;-70
2021/06/09 05:58:39;;;;;;;22.58;7.15;;;21.10;73.30;;;;;;5053123;28;20025;-71
2021/06/09 06:01:10;;;;;;;14.93;6.85;;;21.10;73.60;;;;;;5053174;28;20025;-70
2021/06/09 06:03:39;;;;;;;16.80;6.23;;;21.10;73.50;;;;;;5053346;28;20048;-70
2021/06/09 06:06:12;;;;;;;20.60;7.05;;;21.10;73.60;;;;;;5052879;28;20040;-70
2021/06/09 06:08:41;;;;;;;21.55;7.68;;;21.20;73.40;;;;;;5053094;28;20029;-79
2021/06/09 06:11:11;;;;;;;11.10;7.25;;;21.30;73.60;;;;;;5053047;28;20021;-79
2021/06/09 06:13:38;;;;;;;25.13;7.50;;;21.30;72.30;;;;;;5052764;28;20017;-70
2021/06/09 06:16:04;;;;;;;16.60;7.00;;;;;;;;;;5052832;28;20032;-72
2021/06/09 06:18:40;;;;;;;19.95;6.60;;;21.40;72.40;;;;;;5052728;28;20036;-69
2021/06/09 06:21:07;;;;;;;13.40;6.80;;;;;;;;;;5050659;28;20021;-67
2021/06/09 06:23:33;;;;;;;12.48;6.60;;;;;;;;;;5052442;28;20112;-68
2021/06/09 06:25:59;;;;;;;13.88;6.78;;;21.50;72.30;;;;;;5052863;28;20473;-67
2021/06/09 06:28:25;;;;;;;7.90;5.47;;;21.50;72.90;;;;;;5052790;28;20024;-67
2021/06/09 06:30:54;;;;;;;13.35;5.70;;;;;;;;;;5053186;28;20086;-67
2021/06/09 06:33:25;;;;;;;12.57;5.72;;;21.70;71.80;;;;;;5052597;28;20044;-67
2021/06/09 06:35:51;;;;;;;16.95;6.75;;;21.70;72.20;;;;;;5052347;28;20501;-67
2021/06/09 06:38:19;;;;;;;15.68;6.60;;;21.80;72.30;;;;;;5052804;28;20021;-67
2021/06/09 06:40:45;;;;;;;13.98;6.13;;;21.80;71.50;;;;;;5052757;28;20462;-67
2021/06/09 06:43:11;;;;;;;9.38;6.47;;;21.90;72.10;;;;;;5052686;28;20500;-67
2021/06/09 06:45:38;;;;;;;14.60;5.85;;;22.00;71.80;;;;;;5053528;28;20033;-68
2021/06/09 06:48:04;;;;;;;14.13;6.07;;;22.00;71.90;;;;;;5053110;28;20036;-82
2021/06/09 06:50:30;;;;;;;14.75;5.95;;;22.10;72.10;;;;;;5052743;28;20025;-68
2021/06/09 06:52:57;;;;;;;9.32;5.43;;;22.10;71.80;;;;;;5052471;28;20482;-68
2021/06/09 06:55:24;;;;;;;11.65;5.70;;;22.20;71.20;;;;;;5052596;28;20025;-67
2021/06/09 06:57:50;;;;;;;7.57;5.30;;;22.20;71.00;;;;;;5051972;28;20044;-67
2021/06/09 07:00:20;;;;;;;9.45;5.50;;;22.20;71.00;;;;;;5051797;28;20410;-67
2021/06/09 07:02:51;;;;;;;11.10;5.40;;;22.30;71.00;;;;;;5053507;28;20474;-67
2021/06/09 07:05:21;;;;;;;19.13;5.40;;;22.40;70.50;;;;;;5056794;28;20103;-67
2021/06/09 07:07:48;;;;;;;6.80;5.63;;;22.50;70.40;;;;;;5056721;28;20020;-67
2021/06/09 07:10:16;;;;;;;9.18;7.03;;;22.60;71.10;;;;;;5056397;28;20053;-67
2021/06/09 07:12:43;;;;;;;7.32;5.32;;;22.70;71.30;;;;;;5050192;28;20030;-67
2021/06/09 07:15:11;;;;;;;10.10;5.15;;;22.70;70.40;;;;;;5035314;28;20091;-68
2021/06/09 07:17:44;;;;;;;14.70;5.55;;;22.80;70.20;;;;;;5035452;28;20037;-68
2021/06/09 07:20:11;;;;;;;10.55;5.93;;;22.80;69.30;;;;;;5035508;28;20028;-68
2021/06/09 07:22:38;;;;;;;6.00;5.50;;;22.90;68.80;;;;;;5036190;28;20481;-68
2021/06/09 07:25:06;;;;;;;9.27;5.55;;;22.90;69.00;;;;;;5036232;28;20025;-68
2021/06/09 07:27:45;;;;;;;11.52;5.40;;;23.00;67.00;;;;;;5035171;28;20108;-67
2021/06/09 07:30:15;;;;;;;8.80;5.28;;;23.10;65.90;;;;;;5036027;28;20124;-70
2021/06/09 07:32:45;;;;;;;11.90;4.97;;;23.20;65.70;;;;;;5035817;28;20045;-70
2021/06/09 07:35:13;;;;;;;8.27;5.20;;;23.20;66.00;;;;;;5035843;28;20037;-71
2021/06/09 07:37:45;;;;;;;7.05;5.13;;;23.30;65.90;;;;;;5036110;28;20045;-71
2021/06/09 07:40:39;;;;;;;16.25;5.32;;;23.40;65.60;;;;;;5035931;28;20018;-71
2021/06/09 07:43:09;;;;;;;7.65;4.88;;;23.40;63.50;;;;;;5032573;28;20436;-74
2021/06/09 07:45:36;;;;;;;8.45;5.00;;;23.50;64.10;;;;;;5035848;28;20482;-76
2021/06/09 07:48:03;;;;;;;7.18;5.43;;;23.60;64.10;;;;;;5035781;28;20025;-75
2021/06/09 07:50:36;;;;;;;6.45;5.03;;;23.70;62.50;;;;;;5035236;28;20045;-74
2021/06/09 07:53:10;;;;;;;8.70;5.03;;;23.80;62.30;;;;;;5035828;28;20064;-74
2021/06/09 07:55:43;;;;;;;7.10;5.40;;;23.80;62.60;;;;;;5035918;28;20021;-76
2021/06/09 07:58:10;;;;;;;7.47;5.05;;;23.90;62.80;;;;;;5035610;28;20038;-75
2021/06/09 08:00:36;;;;;;;5.78;4.78;;;;;;;;;;5035763;28;20026;-74
2021/06/09 08:03:03;;;;;;;6.15;5.10;;;24.10;62.30;;;;;;5035743;28;20029;-74
2021/06/09 08:05:29;;;;;;;6.20;5.13;;;24.20;62.00;;;;;;5035720;28;20525;-75
2021/06/09 08:07:55;;;;;;;6.85;5.03;;;24.30;61.70;;;;;;5035661;28;20021;-75
2021/06/09 08:10:21;;;;;;;5.90;5.30;;;24.30;60.70;;;;;;5035257;28;20496;-76
2021/06/09 08:12:51;;;;;;;10.35;4.90;;;24.40;60.10;;;;;;5035471;28;20030;-74
2021/06/09 08:15:18;;;;;;;7.60;5.40;;;24.50;59.70;;;;;;5035574;28;20057;-70
2021/06/09 08:17:45;;;;;;;9.10;4.93;;;24.50;60.30;;;;;;5035456;28;20041;-74
2021/06/09 08:20:15;;;;;;;6.90;5.00;;;24.60;61.10;;;;;;5035558;28;20017;-73
2021/06/09 08:22:44;;;;;;;6.20;4.80;;;24.70;60.80;;;;;;5050644;28;20029;-68
2021/06/09 08:25:15;;;;;;;8.43;5.00;;;24.80;60.70;;;;;;5035524;28;20018;-69
2021/06/09 08:27:41;;;;;;;11.82;4.72;;;24.80;58.60;;;;;;5035366;28;20493;-69
2021/06/09 08:30:08;;;;;;;8.60;5.47;;;24.90;58.20;;;;;;5035058;28;20026;-78
2021/06/09 08:32:35;;;;;;;7.93;4.88;;;25.00;58.30;;;;;;5014290;22;20126;-80
2021/06/09 08:35:03;;;;;;;10.48;4.85;;;25.00;56.10;;;;;;4954275;28;20528;-73
2021/06/09 08:37:28;;;;;;;8.90;4.68;;;25.10;56.90;;;;;;4954076;28;20039;-70
2021/06/09 08:39:55;;;;;;;6.82;4.63;;;25.10;55.60;;;;;;4953811;28;20072;-73
2021/06/09 08:42:24;;;;;;;7.85;5.63;;;25.20;54.60;;;;;;4954082;28;20481;-72
2021/06/09 08:44:50;;;;;;;5.82;5.10;;;25.20;55.50;;;;;;4952555;28;20491;-74
2021/06/09 08:47:17;;;;;;;8.70;5.55;;;25.30;55.80;;;;;;4954111;28;20050;-79
2021/06/09 08:49:44;;;;;;;7.95;5.68;;;25.30;53.80;;;;;;4953728;28;20064;-73
2021/06/09 08:52:13;;;;;;;6.60;4.95;;;25.40;53.90;;;;;;4953782;28;20108;-72
2021/06/09 08:54:45;;;;;;;7.35;5.10;;;25.50;53.40;;;;;;4953772;28;20153;-71
2021/06/09 08:57:13;;;;;;;8.02;4.70;;;25.50;54.70;;;;;;4953575;28;20039;-72
2021/06/09 08:59:40;;;;;;;7.63;5.05;;;25.60;55.60;;;;;;4953297;28;20020;-71
2021/06/09 09:02:07;;;;;;;7.10;4.97;;;25.70;55.10;;;;;;4953489;28;20039;-71
2021/06/09 09:04:33;;;;;;;8.45;4.95;;;25.80;55.30;;;;;;4953646;28;20424;-71
2021/06/09 09:07:00;;;;;;;11.98;4.65;;;25.90;56.30;;;;;;4953585;28;20487;-74
2021/06/09 09:09:26;;;;;;;8.05;4.53;;;25.90;55.50;;;;;;4953391;28;20113;-72
2021/06/09 09:11:51;;;;;;;7.07;4.82;;;26.00;55.10;;;;;;4953313;28;20055;-71
2021/06/09 09:14:20;;;;;;;7.13;4.38;;;26.10;54.00;;;;;;4953396;28;20030;-73
2021/06/09 09:17:06;;;;;;;5.55;4.43;;;26.10;53.80;;;;;;4953250;28;20038;-74
2021/06/09 09:19:35;;;;;;;9.05;4.13;;;26.20;51.20;;;;;;4953003;28;20128;-72
2021/06/09 09:22:01;;;;;;;17.45;5.80;;;26.30;51.70;;;;;;4953496;28;20066;-73
2021/06/09 09:24:38;;;;;;;10.85;5.22;;;26.30;52.20;;;;;;4953244;28;20026;-71
2021/06/09 09:27:05;;;;;;;6.25;4.70;;;26.40;52.10;;;;;;4952741;28;20468;-71
2021/06/09 09:29:31;;;;;;;10.52;4.60;;;26.40;52.00;;;;;;4953251;28;20034;-72
2021/06/09 09:32:04;;;;;;;6.65;4.80;;;26.50;51.80;;;;;;4951391;28;20039;-73
2021/06/09 09:34:36;;;;;;;12.02;4.72;;;26.50;51.50;;;;;;4952161;28;20110;-74
2021/06/09 09:37:04;;;;;;;8.98;4.78;;;26.50;51.20;;;;;;4952856;28;20059;-71
2021/06/09 09:39:30;;;;;;;9.15;4.55;;;26.60;52.00;;;;;;4952097;28;20384;-73
2021/06/09 09:41:56;;;;;;;10.30;5.43;;;26.60;52.60;;;;;;4951573;28;20032;-72
2021/06/09 09:44:22;;;;;;;8.52;4.57;;;26.70;51.70;;;;;;4952496;28;20024;-74
2021/06/09 09:46:55;;;;;;;5.97;4.80;;;26.80;50.30;;;;;;4982688;28;20043;-72
2021/06/09 09:49:22;;;;;;;6.97;4.78;;;26.80;48.00;;;;;;5052641;28;20029;-72
2021/06/09 09:51:50;;;;;;;7.47;4.43;;;26.80;48.20;;;;;;5052723;28;20033;-74
2021/06/09 09:54:26;;;;;;;5.15;4.65;;;26.80;49.00;;;;;;5022049;28;20059;-74
2021/06/09 09:56:53;;;;;;;5.57;4.65;;;26.70;49.10;;;;;;5018480;28;20124;-73
2021/06/09 09:59:22;;;;;;;10.57;5.07;;;26.80;48.20;;;;;;5052754;28;20036;-73
2021/06/09 10:01:52;;;;;;;5.60;4.63;;;26.80;49.10;;;;;;5051940;28;20126;-73
2021/06/09 10:04:20;;;;;;;5.70;4.70;;;26.90;49.80;;;;;;5052474;28;20020;-72
2021/06/09 10:06:49;;;;;;;6.45;4.45;;;27.00;49.60;;;;;;5052644;28;20033;-73
2021/06/09 10:09:23;;;;;;;8.25;4.65;;;27.00;48.10;;;;;;5052850;28;20078;-73
2021/06/09 10:11:53;;;;;;;7.45;4.45;;;27.10;47.60;;;;;;5049979;28;20033;-72
2021/06/09 10:14:22;;;;;;;4.82;4.43;;;27.20;48.90;;;;;;5049836;28;20131;-72
2021/06/09 10:16:56;;;;;;;7.15;4.60;;;27.30;49.40;;;;;;5052890;28;20171;-73
2021/06/09 10:19:22;;;;;;;8.07;4.60;;;27.30;49.00;;;;;;5052787;28;20032;-74
2021/06/09 10:21:55;;;;;;;6.53;5.15;;;27.40;49.60;;;;;;5052313;28;20473;-73
2021/06/09 10:24:23;;;;;;;8.80;4.63;;;27.40;48.80;;;;;;5052844;28;20021;-73
2021/06/09 10:26:58;;;;;;;6.82;4.30;;;27.50;45.70;;;;;;5052531;28;20086;-73
2021/06/09 10:29:28;;;;;;;5.88;4.55;;;27.50;44.90;;;;;;5052688;28;20025;-73
2021/06/09 10:31:57;;;;;;;8.48;4.63;;;27.50;47.20;;;;;;5052568;28;20041;-74
2021/06/09 10:34:26;;;;;;;6.68;4.30;;;27.50;47.80;;;;;;5052598;28;20098;-74
2021/06/09 10:36:52;;;;;;;6.88;4.32;;;27.50;48.60;;;;;;5053189;28;20456;-73
2021/06/09 10:39:22;;;;;;;7.78;4.18;;;27.50;48.40;;;;;;5056501;28;20377;-73
2021/06/09 10:41:53;;;;;;;8.88;4.10;;;27.50;48.20;;;;;;5057377;28;20025;-72
2021/06/09 10:44:21;;;;;;;6.10;4.75;;;27.50;47.50;;;;;;5056983;28;20033;-73
2021/06/09 10:46:50;;;;;;;7.15;4.45;;;27.50;46.50;;;;;;5056921;28;20128;-73
2021/06/09 10:49:18;;;;;;;9.00;4.50;;;27.50;46.70;;;;;;5056958;28;20049;-73
2021/06/09 10:51:46;;;;;;;5.03;4.53;;;27.60;47.30;;;;;;5056967;28;20385;-74
2021/06/09 10:54:14;;;;;;;8.23;4.50;;;27.70;48.20;;;;;;5056530;28;20040;-73
2021/06/09 10:56:45;;;;;;;7.28;4.30;;;27.80;47.80;;;;;;5056902;28;20112;-73
2021/06/09 10:59:17;;;;;;;7.53;4.30;;;27.80;47.20;;;;;;5056603;28;20028;-73
2021/06/09 11:01:45;;;;;;;8.00;4.40;;;27.90;48.00;;;;;;5056724;28;20024;-72
2021/06/09 11:04:12;;;;;;;5.43;4.47;;;28.00;44.40;;;;;;5056490;28;20035;-73
2021/06/09 11:06:44;;;;;;;4.45;4.05;;;28.00;45.70;;;;;;5056460;28;20078;-73
2021/06/09 11:09:19;;;;;;;5.80;4.40;;;28.00;45.00;;;;;;5056392;28;20104;-73
2021/06/09 11:11:47;;;;;;;9.50;4.22;;;28.10;45.40;;;;;;5056502;28;20027;-75
2021/06/09 11:14:24;;;;;;;6.18;3.95;;;28.10;45.60;;;;;;5056434;28;20017;-73
2021/06/09 11:16:54;;;;;;;6.72;3.85;;;28.20;44.30;;;;;;5056058;28;20512;-72
2021/06/09 11:19:41;;;;;;;5.13;4.45;;;28.20;46.50;;;;;;5056341;28;20025;-72
2021/06/09 11:22:25;;;;;;;9.63;4.57;;;28.30;47.00;;;;;;5055957;28;20025;-70
2021/06/09 11:25:23;;;;;;;6.57;4.75;;;28.40;46.70;;;;;;5056317;28;20119;-71
2021/06/09 11:28:10;;;;;;;6.88;4.78;;;28.40;45.50;;;;;;5065758;28;20037;-72
2021/06/09 11:30:42;;;;;;;5.88;4.15;;;28.50;44.90;;;;;;5055631;28;20037;-73
2021/06/09 11:33:10;;;;;;;4.43;3.88;;;28.50;42.90;;;;;;5055694;28;20057;-72
2021/06/09 11:35:44;;;;;;;6.05;3.92;;;28.50;43.60;;;;;;5056149;28;20033;-72
2021/06/09 11:38:13;;;;;;;6.82;3.92;;;28.50;43.80;;;;;;5056114;28;20047;-71
2021/06/09 11:41:05;;;;;;;8.15;3.58;;;28.50;44.70;;;;;;5055701;28;20409;-71
2021/06/09 11:43:41;;;;;;;6.47;3.75;;;28.60;45.10;;;;;;5057348;28;20047;-72
2021/06/09 11:46:22;;;;;;;5.25;4.18;;;28.60;45.60;;;;;;5055798;28;20509;-71
2021/06/09 11:49:00;;;;;;;6.30;4.18;;;28.60;45.00;;;;;;5053790;28;20025;-71
2021/06/09 11:51:31;;;;;;;8.30;4.72;;;28.70;44.70;;;;;;5055623;28;20070;-72
2021/06/09 11:54:00;;;;;;;9.95;4.35;;;28.60;43.90;;;;;;5055455;28;20032;-72
2021/06/09 11:56:29;;;;;;;7.05;4.13;;;28.60;45.00;;;;;;5055572;28;20037;-71
2021/06/09 11:59:01;;;;;;;6.85;4.07;;;28.60;46.40;;;;;;5055502;28;20032;-72
2021/06/09 12:01:43;;;;;;;7.88;3.65;;;28.60;41.70;;;;;;5055417;28;20021;-71
2021/06/09 12:04:26;;;;;;;7.57;4.20;;;28.40;42.30;;;;;;5055226;28;20021;-72
2021/06/09 12:07:06;;;;;;;7.13;4.43;;;28.30;42.40;;;;;;5055179;28;20511;-72
2021/06/09 12:09:41;;;;;;;7.57;3.75;;;28.20;43.80;;;;;;5055219;28;20053;-72
2021/06/09 12:12:11;;;;;;;4.85;3.75;;;28.10;45.10;;;;;;5055327;28;20024;-71
2021/06/09 12:14:39;;;;;;;5.22;4.50;;;28.00;45.00;;;;;;5055304;28;20029;-71
2021/06/09 12:17:11;;;;;;;7.93;4.03;;;28.00;45.60;;;;;;5053255;28;20044;-71
2021/06/09 12:19:38;;;;;;;6.10;4.35;;;27.90;45.40;;;;;;5052203;28;20029;-72
2021/06/09 12:22:16;;;;;;;10.07;4.90;;;27.80;49.50;;;;;;5052422;28;20033;-73
2021/06/09 12:24:42;;;;;;;13.93;6.00;;;27.60;53.60;;;;;;5053487;28;20525;-73
2021/06/09 12:27:13;;;;;;;11.38;6.20;;;27.40;59.20;;;;;;5053772;28;20428;-73
2021/06/09 12:29:41;;;;;;;12.30;6.57;;;27.20;59.60;;;;;;5052943;28;20025;-73
2021/06/09 12:32:26;;;;;;;8.77;6.15;;;26.90;61.70;;;;;;5054091;28;20037;-71
2021/06/09 12:35:03;;;;;;;8.52;6.20;;;26.70;62.50;;;;;;5054577;28;20033;-73
2021/06/09 12:37:30;;;;;;;9.20;5.68;;;26.50;63.90;;;;;;5054713;28;20238;-71
2021/06/09 12:40:07;;;;;;;8.40;6.32;;;26.40;64.90;;;;;;5054538;28;20017;-71
2021/06/09 12:42:33;;;;;;;12.57;6.25;;;26.30;66.10;;;;;;5054618;28;20025;-72
2021/06/09 12:45:03;;;;;;;12.52;6.35;;;26.20;69.50;;;;;;5054651;28;20052;-71
2021/06/09 12:47:31;;;;;;;10.45;6.75;;;26.20;71.40;;;;;;5054362;28;20082;-71
2021/06/09 12:50:11;;;;;;;7.22;6.47;;;26.20;72.00;;;;;;5054374;28;20436;-71
2021/06/09 12:52:38;;;;;;;11.35;6.75;;;26.20;73.00;;;;;;5051687;28;20040;-73
2021/06/09 12:55:09;;;;;;;7.72;7.07;;;26.20;74.50;;;;;;5051589;28;20017;-72
2021/06/09 12:57:36;;;;;;;7.93;6.60;;;26.40;75.50;;;;;;5053740;28;20454;-71
2021/06/09 13:00:21;;;;;;;8.25;6.88;;;26.50;75.80;;;;;;5053480;28;20057;-73